Time;durP1;ratioP1;P1;durP2;ratioP2;P2;SDS_P1;SDS_P2;PMS_P1;PMS_P2;Temp;Humidity;BMP_temperature;BMP_pressure;BME280_temperature;BME280_humidity;BME280_pressure;Samples;Min_cycle;Max_cycle;Signal;HPM_P1;HPM_P2
2021/05/24 00:00:50;;;;;;;6.50;1.00;;;14.90;14.30;;;;;;4993533;28;20198;-74
2021/05/24 00:03:16;;;;;;;3.03;0.90;;;14.90;15.20;;;;;;4993958;28;20861;-75
2021/05/24 00:05:42;;;;;;;3.17;0.87;;;14.80;15.40;;;;;;4997279;28;20164;-75
2021/05/24 00:08:09;;;;;;;1.33;0.80;;;14.80;15.70;;;;;;4997294;28;20668;-75
2021/05/24 00:10:38;;;;;;;5.17;0.97;;;14.90;16.20;;;;;;4996726;28;20212;-75
2021/05/24 00:13:06;;;;;;;2.73;0.90;;;14.90;15.90;;;;;;4997349;28;20199;-75
2021/05/24 00:15:36;;;;;;;2.00;0.90;;;14.90;15.40;;;;;;4997300;28;20175;-75
2021/05/24 00:18:02;;;;;;;2.07;1.00;;;14.90;15.40;;;;;;4996881;28;20168;-75
2021/05/24 00:20:31;;;;;;;1.13;0.60;;;14.90;15.40;;;;;;4996959;28;20218;-76
2021/05/24 00:22:57;;;;;;;2.97;1.00;;;14.80;17.50;;;;;;4997058;28;20274;-75
2021/05/24 00:25:23;;;;;;;1.27;0.70;;;14.80;17.80;;;;;;4996983;28;20249;-76
2021/05/24 00:27:49;;;;;;;2.37;0.80;;;14.90;17.20;;;;;;4996048;28;20237;-77
2021/05/24 00:30:16;;;;;;;4.53;0.93;;;14.90;18.10;;;;;;4996135;28;20171;-74
2021/05/24 00:32:42;;;;;;;2.37;0.80;;;14.90;18.80;;;;;;4996323;28;20179;-76
2021/05/24 00:35:09;;;;;;;2.23;0.90;;;14.80;19.20;;;;;;4996317;28;20164;-75
2021/05/24 00:37:35;;;;;;;5.20;0.70;;;14.80;20.00;;;;;;4996224;28;20192;-75
2021/05/24 00:40:00;;;;;;;1.50;0.70;;;14.80;19.70;;;;;;4996491;28;20218;-74
2021/05/24 00:42:27;;;;;;;1.97;0.90;;;14.80;19.00;;;;;;4996324;28;20171;-74
2021/05/24 00:44:52;;;;;;;1.93;0.70;;;14.80;19.80;;;;;;4996790;28;20230;-75
2021/05/24 00:47:18;;;;;;;1.73;0.70;;;14.90;20.00;;;;;;4996355;28;20652;-73
2021/05/24 00:49:44;;;;;;;2.17;0.80;;;14.80;17.80;;;;;;4996485;28;20734;-74
2021/05/24 00:52:14;;;;;;;4.03;0.83;;;14.90;18.40;;;;;;4996532;28;20167;-75
2021/05/24 00:54:40;;;;;;;2.53;0.97;;;14.90;18.10;;;;;;4996396;28;20541;-79
2021/05/24 00:57:06;;;;;;;3.40;1.00;;;14.80;19.40;;;;;;4995950;28;20171;-80
2021/05/24 00:59:33;;;;;;;3.27;0.90;;;14.90;17.10;;;;;;4996482;28;20272;-80
2021/05/24 01:01:58;;;;;;;3.63;1.00;;;14.80;16.70;;;;;;4996234;28;20179;-80
2021/05/24 01:04:24;;;;;;;4.27;1.27;;;14.80;19.50;;;;;;4996348;28;20222;-80
2021/05/24 01:06:55;;;;;;;5.40;0.90;;;14.80;18.50;;;;;;4995919;28;20164;-80
2021/05/24 01:09:20;;;;;;;1.97;0.80;;;14.80;17.50;;;;;;4995945;28;20179;-79
2021/05/24 01:11:50;;;;;;;2.00;0.80;;;14.80;17.50;;;;;;4995041;28;20569;-80
2021/05/24 01:14:16;;;;;;;1.93;0.93;;;14.80;14.70;;;;;;4995826;28;20314;-80
2021/05/24 01:16:45;;;;;;;2.57;0.80;;;14.80;14.60;;;;;;4994524;28;20169;-80
2021/05/24 01:19:11;;;;;;;1.57;0.80;;;14.80;14.70;;;;;;4994697;28;20700;-80
2021/05/24 01:21:37;;;;;;;1.30;0.67;;;14.90;13.40;;;;;;4995542;28;20227;-80
2021/05/24 01:24:03;;;;;;;3.00;0.90;;;14.80;13.10;;;;;;4995402;28;20190;-79
2021/05/24 01:26:29;;;;;;;2.50;0.90;;;14.80;14.20;;;;;;4995560;28;20548;-80
2021/05/24 01:28:55;;;;;;;3.63;1.00;;;14.90;14.50;;;;;;4995678;28;20180;-80
2021/05/24 01:31:20;;;;;;;2.03;1.00;;;14.80;12.90;;;;;;4996001;28;20170;-80
2021/05/24 01:33:46;;;;;;;2.97;0.70;;;14.80;12.40;;;;;;4996647;28;20179;-80
2021/05/24 01:36:12;;;;;;;3.43;1.00;;;14.80;11.30;;;;;;4996037;28;20180;-80
2021/05/24 01:38:41;;;;;;;2.70;0.63;;;14.80;11.40;;;;;;4995242;28;20261;-80
2021/05/24 01:41:12;;;;;;;4.73;0.80;;;14.90;8.50;;;;;;4995234;28;20194;-80
2021/05/24 01:43:38;;;;;;;1.90;0.90;;;14.90;5.50;;;;;;4995428;28;20644;-80
2021/05/24 01:46:05;;;;;;;3.03;0.80;;;14.90;1.70;;;;;;4995192;28;20783;-80
2021/05/24 01:48:32;;;;;;;3.13;0.90;;;15.00;1.00;;;;;;4994940;28;20242;-80
2021/05/24 01:50:59;;;;;;;1.50;0.53;;;14.80;1.00;;;;;;4995180;28;20184;-81
2021/05/24 01:53:24;;;;;;;3.77;1.00;;;14.90;1.00;;;;;;4995094;28;20184;-80
2021/05/24 01:55:51;;;;;;;2.93;0.70;;;14.80;1.00;;;;;;4994928;28;20171;-80
2021/05/24 01:58:18;;;;;;;3.20;1.27;;;14.90;1.00;;;;;;4994584;28;20282;-80
2021/05/24 02:00:43;;;;;;;3.60;0.80;;;14.90;1.00;;;;;;4995379;28;20179;-80
2021/05/24 02:03:10;;;;;;;1.97;0.73;;;14.80;1.00;;;;;;4995164;28;20175;-80
2021/05/24 02:05:36;;;;;;;2.47;0.93;;;14.90;1.00;;;;;;4995152;28;20707;-81
2021/05/24 02:08:04;;;;;;;3.10;0.77;;;14.90;1.00;;;;;;4994691;28;20171;-80
2021/05/24 02:10:36;;;;;;;4.37;0.97;;;14.80;1.00;;;;;;4995282;28;20195;-79
2021/05/24 02:13:03;;;;;;;2.23;1.20;;;14.80;1.00;;;;;;4995824;28;20529;-80
2021/05/24 02:15:32;;;;;;;3.03;0.77;;;14.90;1.00;;;;;;4995141;28;20217;-81
2021/05/24 02:17:58;;;;;;;3.57;0.90;;;14.80;1.00;;;;;;4994494;28;20214;-80
2021/05/24 02:20:25;;;;;;;2.00;0.73;;;14.80;1.00;;;;;;4994942;28;20183;-83
2021/05/24 02:22:52;;;;;;;5.47;1.23;;;14.80;1.00;;;;;;4994205;28;20183;-80
2021/05/24 02:25:18;;;;;;;3.17;0.73;;;14.70;1.00;;;;;;4994803;28;20178;-79
2021/05/24 02:27:44;;;;;;;4.27;0.60;;;14.70;1.00;;;;;;4994408;28;20662;-80
2021/05/24 02:30:11;;;;;;;2.10;0.73;;;14.70;1.00;;;;;;4994840;28;20225;-80
2021/05/24 02:32:37;;;;;;;1.70;0.70;;;14.70;1.00;;;;;;4994580;28;20599;-80
2021/05/24 02:35:04;;;;;;;3.33;1.10;;;14.70;2.40;;;;;;4994573;28;20171;-80
2021/05/24 02:37:30;;;;;;;3.17;0.87;;;14.70;3.30;;;;;;4994091;28;20178;-80
2021/05/24 02:39:56;;;;;;;5.27;0.90;;;14.70;1.00;;;;;;4994309;28;20207;-80
2021/05/24 02:42:21;;;;;;;3.57;0.93;;;14.80;1.50;;;;;;4994456;28;20695;-80
2021/05/24 02:44:47;;;;;;;3.60;0.90;;;14.70;2.40;;;;;;4994473;28;20225;-80
2021/05/24 02:47:13;;;;;;;3.30;1.00;;;14.70;4.30;;;;;;4994548;28;20178;-80
2021/05/24 02:49:39;;;;;;;1.77;0.80;;;14.60;6.40;;;;;;4994207;28;20186;-80
2021/05/24 02:52:05;;;;;;;1.43;0.70;;;14.50;1.00;;;;;;4994227;28;20560;-80
2021/05/24 02:54:31;;;;;;;1.37;1.00;;;14.50;1.00;;;;;;4994063;28;20171;-80
2021/05/24 02:56:58;;;;;;;3.57;0.73;;;14.60;1.00;;;;;;4994174;28;20174;-80
2021/05/24 02:59:24;;;;;;;1.63;0.73;;;14.50;1.00;;;;;;4993948;28;20202;-80
2021/05/24 03:01:50;;;;;;;2.43;0.77;;;14.50;1.00;;;;;;4994131;28;20524;-80
2021/05/24 03:04:18;;;;;;;5.10;1.23;;;14.50;5.50;;;;;;4992733;28;20186;-80
2021/05/24 03:06:43;;;;;;;3.93;1.60;;;14.50;8.00;;;;;;4993893;28;20628;-80
2021/05/24 03:09:09;;;;;;;3.93;1.53;;;14.60;9.70;;;;;;4994014;28;20171;-80
2021/05/24 03:11:35;;;;;;;2.63;0.70;;;14.50;15.90;;;;;;4993851;28;20615;-80
2021/05/24 03:14:00;;;;;;;3.93;1.17;;;14.50;16.00;;;;;;4994062;28;20725;-80
2021/05/24 03:16:26;;;;;;;3.00;0.90;;;14.40;18.30;;;;;;4994129;28;20187;-80
2021/05/24 03:18:51;;;;;;;3.60;1.23;;;14.40;17.30;;;;;;4993524;28;20689;-80
2021/05/24 03:21:18;;;;;;;2.73;1.00;;;14.30;8.00;;;;;;4993779;28;20190;-79
2021/05/24 03:23:43;;;;;;;3.10;1.10;;;14.30;4.00;;;;;;4993594;28;20274;-80
2021/05/24 03:26:09;;;;;;;2.40;0.73;;;14.30;1.00;;;;;;4994231;28;20697;-79
2021/05/24 03:28:35;;;;;;;2.83;0.90;;;14.30;1.00;;;;;;4993864;28;20201;-79
2021/05/24 03:31:01;;;;;;;2.07;0.90;;;14.30;1.00;;;;;;4994300;28;20178;-80
2021/05/24 03:33:27;;;;;;;2.10;0.90;;;14.20;1.00;;;;;;4994231;28;20266;-79
2021/05/24 03:35:52;;;;;;;1.67;0.70;;;14.20;1.00;;;;;;4994028;28;20190;-79
2021/05/24 03:38:18;;;;;;;1.87;0.60;;;14.00;1.00;;;;;;4994140;28;20211;-82
2021/05/24 03:40:45;;;;;;;2.70;0.70;;;13.80;1.00;;;;;;4997757;28;20202;-80
2021/05/24 03:43:11;;;;;;;1.17;0.70;;;13.70;1.00;;;;;;4997932;28;20171;-79
2021/05/24 03:45:39;;;;;;;2.57;0.70;;;13.50;1.00;;;;;;4997565;28;20183;-80
2021/05/24 03:48:06;;;;;;;2.40;0.50;;;13.40;1.00;;;;;;4997513;28;20183;-80
2021/05/24 03:50:32;;;;;;;2.03;0.63;;;13.30;1.00;;;;;;4997428;28;20183;-80
2021/05/24 03:52:57;;;;;;;1.50;0.60;;;13.30;1.00;;;;;;4997399;28;20305;-80
2021/05/24 03:55:23;;;;;;;1.60;0.60;;;13.30;1.00;;;;;;4997723;28;20662;-80
2021/05/24 03:57:49;;;;;;;2.13;0.67;;;13.30;1.00;;;;;;4998695;28;20233;-80
2021/05/24 04:00:16;;;;;;;2.03;0.70;;;13.20;1.00;;;;;;4999567;28;20214;-79
2021/05/24 04:02:43;;;;;;;1.37;0.80;;;13.10;1.00;;;;;;4996365;28;20203;-80
2021/05/24 04:05:33;;;;;;;1.77;0.70;;;13.10;1.00;;;;;;4996775;28;20167;-80
2021/05/24 04:07:57;;;;;;;2.17;1.00;;;13.10;1.00;;;;;;4996620;28;20182;-79
2021/05/24 04:10:33;;;;;;;1.93;0.80;;;13.00;1.00;;;;;;4997065;28;20183;-80
2021/05/24 04:12:59;;;;;;;3.03;0.73;;;13.00;1.00;;;;;;4996334;28;20170;-79
2021/05/24 04:15:25;;;;;;;1.07;0.60;;;13.00;3.20;;;;;;4995793;28;20175;-79
2021/05/24 04:17:54;;;;;;;2.03;0.70;;;12.90;9.00;;;;;;4997353;28;20705;-79
2021/05/24 04:20:20;;;;;;;1.53;0.70;;;12.90;14.40;;;;;;4996756;28;20662;-80
2021/05/24 04:22:45;;;;;;;1.47;0.60;;;12.80;14.60;;;;;;4997112;28;20187;-79
2021/05/24 04:25:12;;;;;;;1.13;0.70;;;12.70;21.20;;;;;;4998134;28;20175;-80
2021/05/24 04:27:38;;;;;;;1.67;0.73;;;12.70;23.90;;;;;;4997000;28;20183;-79
2021/05/24 04:30:09;;;;;;;1.00;0.70;;;12.60;25.90;;;;;;4997024;28;20175;-79
2021/05/24 04:32:35;;;;;;;1.10;0.90;;;12.60;29.20;;;;;;4996625;28;20202;-79
2021/05/24 04:35:00;;;;;;;2.27;0.70;;;12.60;35.00;;;;;;4996933;28;20591;-83
2021/05/24 04:37:26;;;;;;;2.13;0.70;;;12.60;36.70;;;;;;4998054;28;20213;-79
2021/05/24 04:39:52;;;;;;;1.03;0.60;;;12.60;39.10;;;;;;5017325;28;20443;-80
2021/05/24 04:42:20;;;;;;;0.90;0.63;;;12.60;41.30;;;;;;4999793;28;20251;-79
2021/05/24 04:44:45;;;;;;;3.40;0.87;;;12.70;44.20;;;;;;4997079;28;20217;-80
2021/05/24 04:47:11;;;;;;;4.53;1.00;;;12.60;45.30;;;;;;4996488;28;20639;-79
2021/05/24 04:49:36;;;;;;;1.60;0.90;;;12.50;49.20;;;;;;4996325;28;20179;-79
2021/05/24 04:52:03;;;;;;;1.57;0.70;;;12.60;52.50;;;;;;4996037;28;20182;-79
2021/05/24 04:54:29;;;;;;;2.20;0.80;;;12.60;54.40;;;;;;4999643;28;20179;-78
2021/05/24 04:56:54;;;;;;;1.57;0.73;;;12.60;55.90;;;;;;5020010;28;20190;-78
2021/05/24 04:59:20;;;;;;;2.40;1.00;;;12.50;58.70;;;;;;5002673;28;20223;-80
2021/05/24 05:01:52;;;;;;;1.70;0.77;;;12.50;57.00;;;;;;4997102;28;20624;-79
2021/05/24 05:04:18;;;;;;;3.63;0.93;;;12.40;58.90;;;;;;4997376;28;20245;-79
2021/05/24 05:06:44;;;;;;;2.10;0.90;;;12.40;59.60;;;;;;4996771;28;20650;-80
2021/05/24 05:09:10;;;;;;;2.17;0.80;;;12.40;60.00;;;;;;4996872;28;20175;-79
2021/05/24 05:11:36;;;;;;;2.93;0.90;;;12.50;59.90;;;;;;4996577;28;20651;-80
2021/05/24 05:14:03;;;;;;;1.87;0.80;;;12.40;63.00;;;;;;4996413;28;20175;-79
2021/05/24 05:16:30;;;;;;;1.53;0.83;;;12.40;64.60;;;;;;4996203;28;20171;-79
2021/05/24 05:18:56;;;;;;;2.20;0.80;;;12.40;67.20;;;;;;4996883;28;20198;-82
2021/05/24 05:21:22;;;;;;;3.03;1.00;;;12.40;69.00;;;;;;4996570;28;20182;-83
2021/05/24 05:23:48;;;;;;;2.63;0.90;;;12.30;73.10;;;;;;4996263;28;20687;-83
2021/05/24 05:26:13;;;;;;;4.90;2.13;;;12.30;73.60;;;;;;4998800;28;20175;-82
2021/05/24 05:28:40;;;;;;;1.33;0.90;;;12.40;74.70;;;;;;4996909;28;20639;-80
2021/05/24 05:31:06;;;;;;;2.57;0.93;;;12.40;77.70;;;;;;4994846;28;20257;-80
2021/05/24 05:33:32;;;;;;;3.00;1.03;;;12.30;77.40;;;;;;4996770;28;20171;-80
2021/05/24 05:35:58;;;;;;;1.20;0.70;;;12.30;79.20;;;;;;4996191;28;20205;-80
2021/05/24 05:38:25;;;;;;;4.13;1.10;;;12.30;83.40;;;;;;4996072;28;20210;-80
2021/05/24 05:40:52;;;;;;;1.90;1.10;;;12.20;83.80;;;;;;4994810;28;20645;-79
2021/05/24 05:43:18;;;;;;;7.10;1.10;;;12.20;86.80;;;;;;4996083;28;20170;-80
2021/05/24 05:45:45;;;;;;;2.90;0.80;;;12.30;88.20;;;;;;4996070;28;20175;-80
2021/05/24 05:48:11;;;;;;;2.27;0.87;;;12.20;87.60;;;;;;4995006;28;20266;-80
2021/05/24 05:50:37;;;;;;;1.97;0.93;;;12.30;90.00;;;;;;4996261;28;20286;-81
2021/05/24 05:53:03;;;;;;;3.17;1.17;;;12.20;89.70;;;;;;4995942;28;20170;-78
2021/05/24 05:55:30;;;;;;;2.63;0.80;;;12.20;90.30;;;;;;4995590;28;20236;-79
2021/05/24 05:57:55;;;;;;;4.50;0.90;;;12.10;90.00;;;;;;4995922;28;20250;-83
2021/05/24 06:00:22;;;;;;;2.40;0.90;;;12.10;90.10;;;;;;4996604;28;20239;-83
2021/05/24 06:02:47;;;;;;;3.20;0.80;;;12.10;86.20;;;;;;4997940;28;20167;-83
2021/05/24 06:05:14;;;;;;;2.63;0.83;;;12.10;87.50;;;;;;4997292;28;20286;-83
2021/05/24 06:07:40;;;;;;;1.40;0.87;;;12.00;87.50;;;;;;4998034;28;20544;-84
2021/05/24 06:10:11;;;;;;;1.47;0.77;;;12.00;89.90;;;;;;4996532;28;20167;-82
2021/05/24 06:12:37;;;;;;;1.70;0.90;;;12.00;90.90;;;;;;4996779;28;20190;-83
2021/05/24 06:15:04;;;;;;;2.23;0.90;;;12.00;90.20;;;;;;4995786;28;20627;-83
2021/05/24 06:17:30;;;;;;;4.37;1.10;;;12.00;91.30;;;;;;4996575;28;20175;-84
2021/05/24 06:19:56;;;;;;;2.23;0.87;;;12.00;91.30;;;;;;4994853;28;20215;-80
2021/05/24 06:22:21;;;;;;;3.43;1.10;;;12.00;91.70;;;;;;4996801;28;20740;-83
2021/05/24 06:24:47;;;;;;;3.27;1.00;;;11.90;92.00;;;;;;5003983;28;20184;-83
2021/05/24 06:27:13;;;;;;;2.20;1.00;;;11.90;92.80;;;;;;5006353;28;20167;-82
2021/05/24 06:29:39;;;;;;;4.40;1.00;;;12.10;93.50;;;;;;5003901;28;20187;-83
2021/05/24 06:32:22;;;;;;;2.63;1.00;;;12.00;93.30;;;;;;4998676;28;20186;-83
2021/05/24 06:34:48;;;;;;;1.97;1.07;;;12.00;93.90;;;;;;4997489;28;20179;-80
2021/05/24 06:37:14;;;;;;;3.87;1.20;;;11.80;94.10;;;;;;4996179;28;20171;-79
2021/05/24 06:39:39;;;;;;;2.80;1.10;;;11.70;95.10;;;;;;4996387;28;20211;-82
2021/05/24 06:42:07;;;;;;;2.43;0.90;;;11.70;96.10;;;;;;4997347;28;20285;-83
2021/05/24 06:44:32;;;;;;;4.27;1.20;;;11.80;96.30;;;;;;4996783;28;20179;-82
2021/05/24 06:46:58;;;;;;;2.27;1.20;;;11.70;96.30;;;;;;4997315;28;20186;-82
2021/05/24 06:49:27;;;;;;;3.93;1.30;;;11.70;96.70;;;;;;4996858;28;20175;-83
2021/05/24 06:51:53;;;;;;;2.73;0.90;;;11.90;97.40;;;;;;4996112;28;20579;-83
2021/05/24 06:54:18;;;;;;;4.10;1.20;;;11.70;97.10;;;;;;4995616;28;20175;-83
2021/05/24 06:56:45;;;;;;;2.00;0.93;;;11.60;97.60;;;;;;4996563;28;20506;-82
2021/05/24 06:59:11;;;;;;;3.33;1.03;;;11.70;98.20;;;;;;4998570;28;20215;-83
2021/05/24 07:01:38;;;;;;;2.67;1.23;;;11.60;98.00;;;;;;5011051;28;20235;-84
2021/05/24 07:04:05;;;;;;;3.03;1.30;;;11.60;98.60;;;;;;5008337;28;20207;-83
2021/05/24 07:06:30;;;;;;;1.83;1.17;;;11.60;98.80;;;;;;5000525;28;20177;-85
2021/05/24 07:08:58;;;;;;;3.87;1.17;;;11.80;99.30;;;;;;4996014;28;20174;-84
2021/05/24 07:11:24;;;;;;;3.27;1.10;;;11.60;99.50;;;;;;4996286;28;20275;-84
2021/05/24 07:13:50;;;;;;;2.47;1.10;;;11.60;99.60;;;;;;4995005;28;20183;-83
2021/05/24 07:16:16;;;;;;;2.83;1.30;;;11.60;99.90;;;;;;4997159;28;20721;-85
2021/05/24 07:18:48;;;;;;;1.97;1.20;;;11.60;99.90;;;;;;5006814;28;20214;-85
2021/05/24 07:21:13;;;;;;;4.23;1.20;;;11.70;99.90;;;;;;5011645;28;20185;-84
2021/05/24 07:23:41;;;;;;;2.60;1.20;;;11.60;99.90;;;;;;5015356;28;20281;-84
2021/05/24 07:26:07;;;;;;;2.73;1.20;;;11.80;99.90;;;;;;4998029;28;20170;-85
2021/05/24 07:28:32;;;;;;;5.67;1.70;;;11.70;99.90;;;;;;4994795;28;20171;-84
2021/05/24 07:30:58;;;;;;;3.97;1.67;;;11.80;99.90;;;;;;5000217;28;20235;-85
2021/05/24 07:33:24;;;;;;;3.40;1.50;;;11.80;99.90;;;;;;5001230;28;20241;-84
2021/05/24 07:35:50;;;;;;;4.40;1.60;;;11.80;99.90;;;;;;4996383;28;20171;-84
2021/05/24 07:38:16;;;;;;;4.80;1.67;;;11.90;99.90;;;;;;4997033;28;20229;-85
2021/05/24 07:40:42;;;;;;;3.70;1.73;;;11.80;99.90;;;;;;4997131;28;20179;-84
2021/05/24 07:43:07;;;;;;;3.60;1.50;;;11.70;99.90;;;;;;4996956;28;20194;-84
2021/05/24 07:45:33;;;;;;;3.97;1.30;;;11.70;99.90;;;;;;5000199;28;20249;-85
2021/05/24 07:47:58;;;;;;;3.60;1.33;;;11.70;99.90;;;;;;5000412;28;20167;-85
2021/05/24 07:50:25;;;;;;;2.40;1.60;;;11.80;99.90;;;;;;4995683;28;20714;-83
2021/05/24 07:52:51;;;;;;;4.80;2.50;;;11.90;99.90;;;;;;4995464;28;20190;-81
2021/05/24 07:55:20;;;;;;;2.93;1.33;;;11.90;99.90;;;;;;4995587;28;20175;-83
2021/05/24 07:57:45;;;;;;;2.87;1.27;;;12.00;99.90;;;;;;4994463;28;20163;-79
2021/05/24 08:00:12;;;;;;;4.00;1.30;;;12.00;99.90;;;;;;4994092;28;20265;-81
2021/05/24 08:02:40;;;;;;;3.87;1.37;;;12.00;99.90;;;;;;4994338;28;20175;-80
2021/05/24 08:05:08;;;;;;;3.70;1.30;;;12.10;99.90;;;;;;4994541;28;20202;-80
2021/05/24 08:07:35;;;;;;;4.00;1.33;;;12.10;99.90;;;;;;4996582;28;20207;-81
2021/05/24 08:10:00;;;;;;;3.83;1.20;;;12.20;99.90;;;;;;4997698;28;20175;-83
2021/05/24 08:12:27;;;;;;;2.47;1.20;;;12.10;99.90;;;;;;4997837;28;20229;-82
2021/05/24 08:14:53;;;;;;;4.00;1.43;;;12.20;99.90;;;;;;4980114;28;20666;-85
2021/05/24 08:17:18;;;;;;;2.90;1.20;;;12.20;99.90;;;;;;4998923;28;20172;-84
2021/05/24 08:19:44;;;;;;;1.80;1.00;;;12.20;99.90;;;;;;4999466;28;20570;-85
2021/05/24 08:22:10;;;;;;;3.17;1.20;;;12.30;99.90;;;;;;4997305;28;20200;-84
2021/05/24 08:24:35;;;;;;;2.70;1.30;;;12.40;99.90;;;;;;4997147;28;20187;-84
2021/05/24 08:27:01;;;;;;;2.70;1.30;;;12.60;99.90;;;;;;5000883;28;20163;-83
2021/05/24 08:29:27;;;;;;;2.80;1.20;;;12.40;99.90;;;;;;5001181;28;20187;-83
2021/05/24 08:31:53;;;;;;;4.40;1.37;;;12.40;99.90;;;;;;4999193;28;20206;-83
2021/05/24 08:34:19;;;;;;;2.00;1.20;;;12.50;99.90;;;;;;5000347;28;20175;-84
2021/05/24 08:36:45;;;;;;;3.40;1.20;;;12.40;99.90;;;;;;5003442;28;20171;-84
2021/05/24 08:39:11;;;;;;;4.00;1.20;;;12.30;99.90;;;;;;5005429;28;20222;-84
2021/05/24 08:41:38;;;;;;;2.53;1.70;;;12.40;99.90;;;;;;5003742;28;20569;-83
2021/05/24 08:44:05;;;;;;;2.90;1.20;;;12.40;99.90;;;;;;5000399;28;20169;-84
2021/05/24 08:46:31;;;;;;;3.33;1.70;;;12.50;99.90;;;;;;5000814;28;20245;-84
2021/05/24 08:48:57;;;;;;;3.30;1.50;;;12.60;99.90;;;;;;5007164;28;20167;-80
2021/05/24 08:51:25;;;;;;;2.93;1.40;;;12.70;99.90;;;;;;5009432;28;20175;-84
2021/05/24 08:53:51;;;;;;;4.60;1.53;;;12.60;99.90;;;;;;5009520;28;20213;-83
2021/05/24 08:56:16;;;;;;;2.73;1.53;;;12.60;99.90;;;;;;5009392;28;20178;-83
2021/05/24 08:58:42;;;;;;;2.67;1.20;;;12.60;99.90;;;;;;5005250;28;20210;-85
2021/05/24 09:01:08;;;;;;;2.53;1.20;;;12.70;99.90;;;;;;5002880;28;20182;-82
2021/05/24 09:03:35;;;;;;;3.60;1.67;;;12.80;99.90;;;;;;5001371;28;20650;-84
2021/05/24 09:06:10;;;;;;;2.80;1.30;;;13.00;99.90;;;;;;5001860;28;20187;-83
2021/05/24 09:08:37;;;;;;;3.27;1.47;;;12.90;99.90;;;;;;5007221;28;20155;-82
2021/05/24 09:11:05;;;;;;;3.97;1.20;;;12.90;99.90;;;;;;5003440;28;20221;-83
2021/05/24 09:13:33;;;;;;;6.10;3.80;;;12.90;99.90;;;;;;4999169;28;20194;-82
2021/05/24 09:16:00;;;;;;;3.70;1.70;;;13.00;99.90;;;;;;4999001;28;20255;-86
2021/05/24 09:18:26;;;;;;;3.70;1.30;;;13.20;99.90;;;;;;4999568;28;20163;-85
2021/05/24 09:20:52;;;;;;;2.67;1.30;;;13.30;99.90;;;;;;5001405;28;20193;-83
2021/05/24 09:23:24;;;;;;;2.47;1.27;;;13.60;99.30;;;;;;5001858;28;20249;-84
2021/05/24 09:26:10;;;;;;;2.73;1.20;;;13.50;98.80;;;;;;5008073;28;20206;-80
2021/05/24 09:28:52;;;;;;;2.83;1.53;;;13.40;96.60;;;;;;5001757;28;20203;-84
2021/05/24 09:31:23;;;;;;;2.70;1.47;;;13.40;97.20;;;;;;5000471;28;20187;-84
2021/05/24 09:33:50;;;;;;;2.73;1.30;;;13.40;96.60;;;;;;5001612;28;20225;-84
2021/05/24 09:36:16;;;;;;;3.50;1.63;;;13.40;96.50;;;;;;5001053;28;20214;-83
2021/05/24 09:38:50;;;;;;;3.77;1.90;;;13.30;96.60;;;;;;5005796;28;20198;-84
2021/05/24 09:41:21;;;;;;;2.13;1.40;;;13.20;96.50;;;;;;5005338;28;20674;-82
2021/05/24 09:43:50;;;;;;;2.67;1.33;;;13.20;96.70;;;;;;5015253;28;20171;-84
2021/05/24 09:46:20;;;;;;;3.87;1.90;;;13.10;96.70;;;;;;5000587;28;20175;-81
2021/05/24 09:48:51;;;;;;;2.70;1.33;;;13.20;96.70;;;;;;4995637;28;20225;-80
2021/05/24 09:51:26;;;;;;;6.13;4.00;;;13.30;96.50;;;;;;4995697;28;20635;-81
2021/05/24 09:54:12;;;;;;;4.63;2.87;;;13.50;96.00;;;;;;4995522;28;20536;-81
2021/05/24 09:56:40;;;;;;;3.53;1.80;;;13.60;94.90;;;;;;4995104;28;20696;-81
2021/05/24 09:59:24;;;;;;;3.07;1.50;;;13.70;93.60;;;;;;4995155;28;20219;-80
2021/05/24 10:02:00;;;;;;;2.20;1.57;;;13.70;92.50;;;;;;4999859;28;20197;-84
2021/05/24 10:04:29;;;;;;;1.77;1.10;;;13.80;91.40;;;;;;4996742;28;20181;-84
2021/05/24 10:07:02;;;;;;;2.07;1.10;;;13.60;87.10;;;;;;4996004;28;20242;-83
2021/05/24 10:09:31;;;;;;;2.73;1.30;;;13.60;84.90;;;;;;4996940;28;20623;-84
2021/05/24 10:11:59;;;;;;;2.17;1.20;;;13.60;86.10;;;;;;4997727;28;20189;-82
2021/05/24 10:14:25;;;;;;;2.47;1.10;;;13.60;81.70;;;;;;5000238;28;20258;-83
2021/05/24 10:16:56;;;;;;;1.97;1.10;;;13.70;75.70;;;;;;4997008;28;20661;-84
2021/05/24 10:19:32;;;;;;;2.60;1.20;;;13.70;70.00;;;;;;4996697;28;20210;-80
2021/05/24 10:21:59;;;;;;;2.23;1.20;;;13.60;60.10;;;;;;4998139;28;20171;-84
2021/05/24 10:24:25;;;;;;;2.37;1.20;;;13.70;59.80;;;;;;4998583;28;20262;-82
2021/05/24 10:26:58;;;;;;;3.00;1.30;;;13.80;56.90;;;;;;5001009;28;20276;-84
2021/05/24 10:29:24;;;;;;;4.40;1.63;;;13.60;54.50;;;;;;4998593;28;20175;-84
2021/05/24 10:31:51;;;;;;;1.50;1.10;;;13.60;54.30;;;;;;4997373;28;20181;-84
2021/05/24 10:34:21;;;;;;;3.77;1.60;;;13.60;52.10;;;;;;4998863;28;20631;-84
2021/05/24 10:37:09;;;;;;;2.70;1.47;;;13.60;51.20;;;;;;5001527;28;20250;-85
2021/05/24 10:40:01;;;;;;;2.83;1.47;;;13.60;50.60;;;;;;5001662;28;20242;-82
2021/05/24 10:42:45;;;;;;;2.47;1.33;;;13.60;46.20;;;;;;5001841;28;20183;-82
2021/05/24 10:45:21;;;;;;;3.37;1.40;;;13.60;39.20;;;;;;4998766;28;20171;-80
2021/05/24 10:48:01;;;;;;;4.43;1.33;;;13.50;40.50;;;;;;4997870;28;20651;-82
2021/05/24 10:50:29;;;;;;;2.90;1.40;;;13.60;43.20;;;;;;4995413;28;20171;-80
2021/05/24 10:53:04;;;;;;;1.50;1.20;;;13.60;30.50;;;;;;4995356;28;20647;-81
2021/05/24 10:55:38;;;;;;;3.17;1.37;;;13.60;31.70;;;;;;4995183;28;20178;-80
2021/05/24 10:58:09;;;;;;;2.83;1.53;;;13.60;30.00;;;;;;4995685;28;20269;-80
2021/05/24 11:01:03;;;;;;;2.63;1.13;;;13.90;26.90;;;;;;4996613;28;20229;-82
2021/05/24 11:03:29;;;;;;;2.13;1.00;;;13.90;22.20;;;;;;4995958;28;20249;-83
2021/05/24 11:06:16;;;;;;;3.03;1.20;;;14.00;19.20;;;;;;4994152;28;20159;-81
2021/05/24 11:09:06;;;;;;;2.13;1.30;;;14.10;13.30;;;;;;4994833;28;20167;-81
2021/05/24 11:11:35;;;;;;;3.07;1.10;;;14.20;1.30;;;;;;4995214;28;20201;-80
2021/05/24 11:14:09;;;;;;;3.57;1.30;;;14.30;4.50;;;;;;4996202;28;20178;-84
2021/05/24 11:16:37;;;;;;;2.97;1.30;;;14.50;7.70;;;;;;4999377;28;20222;-82
2021/05/24 11:19:07;;;;;;;2.83;1.27;;;14.50;1.00;;;;;;4997787;28;20218;-80
2021/05/24 11:21:33;;;;;;;4.97;1.67;;;14.60;2.00;;;;;;4997731;28;20232;-79
2021/05/24 11:24:06;;;;;;;1.43;1.00;;;14.50;1.00;;;;;;4997430;28;20187;-80
2021/05/24 11:26:36;;;;;;;2.13;1.20;;;14.50;1.00;;;;;;4995725;28;20205;-80
2021/05/24 11:29:16;;;;;;;1.87;1.20;;;14.60;1.00;;;;;;4994961;28;20226;-77
2021/05/24 11:31:52;;;;;;;3.80;1.40;;;14.70;1.00;;;;;;4994678;28;20182;-79
2021/05/24 11:34:27;;;;;;;3.10;1.33;;;14.70;1.00;;;;;;4994394;28;20198;-80
2021/05/24 11:37:13;;;;;;;2.37;1.33;;;14.60;1.00;;;;;;4994504;28;20651;-79
2021/05/24 11:39:48;;;;;;;4.47;1.30;;;14.70;1.00;;;;;;4995853;28;20211;-80
2021/05/24 11:42:32;;;;;;;3.37;1.60;;;14.80;1.00;;;;;;4995734;28;20167;-81
2021/05/24 11:45:02;;;;;;;2.93;1.20;;;14.80;1.00;;;;;;4995296;28;20178;-80
2021/05/24 11:47:28;;;;;;;2.83;1.40;;;15.00;1.00;;;;;;4994348;28;20174;-80
2021/05/24 11:49:58;;;;;;;3.83;1.33;;;15.10;1.00;;;;;;4993049;28;20179;-80
2021/05/24 11:52:26;;;;;;;3.47;1.60;;;15.20;1.00;;;;;;4994589;28;20195;-80
2021/05/24 11:54:53;;;;;;;3.80;1.80;;;15.30;1.00;;;;;;4994552;28;20175;-80
2021/05/24 11:57:21;;;;;;;4.20;1.80;;;15.20;1.00;;;;;;4997441;28;20203;-80
2021/05/24 11:59:47;;;;;;;4.13;1.80;;;14.90;1.00;;;;;;4995383;28;20683;-80
2021/05/24 12:02:13;;;;;;;3.70;1.63;;;14.90;1.00;;;;;;5009754;28;20173;-79
2021/05/24 12:04:42;;;;;;;3.70;1.50;;;15.00;1.00;;;;;;5007590;28;20171;-80
2021/05/24 12:07:14;;;;;;;2.57;1.27;;;15.10;1.00;;;;;;4998814;28;20179;-81
2021/05/24 12:09:41;;;;;;;5.03;1.80;;;15.00;1.00;;;;;;4998688;28;20225;-80
2021/05/24 12:12:13;;;;;;;2.53;1.63;;;15.00;1.00;;;;;;4998462;28;20232;-80
2021/05/24 12:14:41;;;;;;;3.73;1.60;;;15.10;1.00;;;;;;4998047;28;20243;-81
2021/05/24 12:17:10;;;;;;;5.50;2.07;;;15.20;1.00;;;;;;5000135;28;20183;-80
2021/05/24 12:19:37;;;;;;;2.50;1.23;;;15.30;1.00;;;;;;5001532;28;20199;-79
2021/05/24 12:22:06;;;;;;;4.43;1.63;;;15.30;1.00;;;;;;5012978;28;20182;-79
2021/05/24 12:24:37;;;;;;;2.53;1.40;;;15.40;1.00;;;;;;5010510;28;20196;-80
2021/05/24 12:27:06;;;;;;;3.57;1.30;;;15.60;1.00;;;;;;4998778;28;20166;-80
2021/05/24 12:29:35;;;;;;;3.07;1.50;;;15.80;1.00;;;;;;4997591;28;20179;-80
2021/05/24 12:32:05;;;;;;;3.53;1.80;;;16.00;1.00;;;;;;4997007;28;20159;-79
2021/05/24 12:34:38;;;;;;;4.47;1.60;;;16.00;1.00;;;;;;4997001;28;20175;-79
2021/05/24 12:37:06;;;;;;;3.10;1.70;;;16.00;1.00;;;;;;4997303;28;20182;-79
2021/05/24 12:39:34;;;;;;;5.57;1.93;;;15.90;1.00;;;;;;4998330;28;20216;-79
2021/05/24 12:42:01;;;;;;;2.83;1.70;;;15.70;1.00;;;;;;4998498;28;20163;-79
2021/05/24 12:44:28;;;;;;;3.23;1.63;;;15.40;1.00;;;;;;4998991;28;20214;-80
2021/05/24 12:46:56;;;;;;;2.27;1.63;;;15.20;1.00;;;;;;4997361;28;20227;-79
2021/05/24 12:49:46;;;;;;;3.53;1.60;;;15.20;1.00;;;;;;4997145;28;20164;-80
2021/05/24 12:52:13;;;;;;;3.33;1.80;;;15.30;1.00;;;;;;4997779;28;20180;-79
2021/05/24 12:54:43;;;;;;;4.10;2.33;;;15.40;1.00;;;;;;4997954;28;20196;-79